Terminal Aerodrome Forecast
Issued by NWS Chicago, IL

Home | Current Version | Previous Version | Graphics & Text | Print | Product List | Glossary On
Versions: 1 2 3 4 5 6 7 8 9 10 11 12 13 14 15 16 17 18 19 20 21 22 23 24 25
000
FTUS43 KLOT 220530
TAFRFD
TAF
KRFD 220530Z 2206/2306 13006KT 6SM -TSRA BKN050CB BKN100
      TEMPO 2206/2210 3SM TSRA FEW008 SCT025 BKN035CB
     FM221000 20005KT P6SM SCT080 BKN250
     FM222000 35004KT P6SM BKN040=

USA.gov is the U.S. government's official web portal to all federal, state and local government web resources and services.